sensor_id;sensor_type;location;lat;lon;timestamp;pressure;altitude;pressure_sealevel;temperature
23208;BMP180;11773;52.570;13.052;2023-02-01T00:01:50;100775.00;;;10.00
23208;BMP180;11773;52.570;13.052;2023-02-01T00:04:19;100767.00;;;10.00
23208;BMP180;11773;52.570;13.052;2023-02-01T00:06:49;100755.00;;;10.00
23208;BMP180;11773;52.570;13.052;2023-02-01T00:09:19;100768.00;;;10.00
23208;BMP180;11773;52.570;13.052;2023-02-01T00:11:48;100784.00;;;10.10
23208;BMP180;11773;52.570;13.052;2023-02-01T00:14:18;100763.00;;;10.10
23208;BMP180;11773;52.570;13.052;2023-02-01T00:16:47;100756.00;;;10.10
23208;BMP180;11773;52.570;13.052;2023-02-01T00:19:17;100755.00;;;10.10
23208;BMP180;11773;52.570;13.052;2023-02-01T00:21:46;100771.00;;;10.10
23208;BMP180;11773;52.570;13.052;2023-02-01T00:24:16;100748.00;;;10.10
23208;BMP180;11773;52.570;13.052;2023-02-01T00:26:46;100742.00;;;10.10
23208;BMP180;11773;52.570;13.052;2023-02-01T00:29:19;100735.00;;;10.10
23208;BMP180;11773;52.570;13.052;2023-02-01T00:31:51;100767.00;;;10.10
23208;BMP180;11773;52.570;13.052;2023-02-01T00:34:21;100753.00;;;10.10
23208;BMP180;11773;52.570;13.052;2023-02-01T00:36:50;100758.00;;;10.10
23208;BMP180;11773;52.570;13.052;2023-02-01T00:39:20;100756.00;;;10.10
23208;BMP180;11773;52.570;13.052;2023-02-01T00:41:49;100771.00;;;10.10
23208;BMP180;11773;52.570;13.052;2023-02-01T00:44:19;100760.00;;;10.10
23208;BMP180;11773;52.570;13.052;2023-02-01T00:46:48;100773.00;;;10.10
23208;BMP180;11773;52.570;13.052;2023-02-01T00:49:18;100770.00;;;10.10
23208;BMP180;11773;52.570;13.052;2023-02-01T00:51:47;100774.00;;;10.10
23208;BMP180;11773;52.570;13.052;2023-02-01T00:54:17;100765.00;;;10.10
23208;BMP180;11773;52.570;13.052;2023-02-01T00:56:46;100769.00;;;10.00
23208;BMP180;11773;52.570;13.052;2023-02-01T00:59:15;100762.00;;;10.00
23208;BMP180;11773;52.570;13.052;2023-02-01T01:01:45;100781.00;;;10.00
23208;BMP180;11773;52.570;13.052;2023-02-01T01:04:14;100761.00;;;10.00
23208;BMP180;11773;52.570;13.052;2023-02-01T01:06:44;100781.00;;;10.00
23208;BMP180;11773;52.570;13.052;2023-02-01T01:09:14;100783.00;;;10.00
23208;BMP180;11773;52.570;13.052;2023-02-01T01:11:44;100764.00;;;10.00
23208;BMP180;11773;52.570;13.052;2023-02-01T01:14:13;100760.00;;;10.00
23208;BMP180;11773;52.570;13.052;2023-02-01T01:16:43;100757.00;;;9.90
23208;BMP180;11773;52.570;13.052;2023-02-01T01:19:12;100759.00;;;9.90
23208;BMP180;11773;52.570;13.052;2023-02-01T01:21:42;100751.00;;;9.90
23208;BMP180;11773;52.570;13.052;2023-02-01T01:24:11;100761.00;;;9.90
23208;BMP180;11773;52.570;13.052;2023-02-01T01:26:41;100750.00;;;9.90
23208;BMP180;11773;52.570;13.052;2023-02-01T01:29:10;100741.00;;;9.90
23208;BMP180;11773;52.570;13.052;2023-02-01T01:31:40;100739.00;;;9.90
23208;BMP180;11773;52.570;13.052;2023-02-01T01:34:09;100743.00;;;9.90
23208;BMP180;11773;52.570;13.052;2023-02-01T01:36:39;100740.00;;;9.90
23208;BMP180;11773;52.570;13.052;2023-02-01T01:39:08;100734.00;;;9.90
23208;BMP180;11773;52.570;13.052;2023-02-01T01:41:38;100734.00;;;9.90
23208;BMP180;11773;52.570;13.052;2023-02-01T01:47:06;100742.00;;;9.90
23208;BMP180;11773;52.570;13.052;2023-02-01T01:49:36;100752.00;;;9.90
23208;BMP180;11773;52.570;13.052;2023-02-01T01:52:07;100752.00;;;9.90
23208;BMP180;11773;52.570;13.052;2023-02-01T01:54:45;100734.00;;;9.90
23208;BMP180;11773;52.570;13.052;2023-02-01T01:57:46;100740.00;;;9.90
23208;BMP180;11773;52.570;13.052;2023-02-01T02:00:17;100750.00;;;9.90
23208;BMP180;11773;52.570;13.052;2023-02-01T02:02:47;100750.00;;;9.90
23208;BMP180;11773;52.570;13.052;2023-02-01T02:05:17;100749.00;;;9.80
23208;BMP180;11773;52.570;13.052;2023-02-01T02:08:07;100747.00;;;9.90
23208;BMP180;11773;52.570;13.052;2023-02-01T02:10:37;100756.00;;;9.90
23208;BMP180;11773;52.570;13.052;2023-02-01T02:13:40;100749.00;;;9.80
23208;BMP180;11773;52.570;13.052;2023-02-01T02:16:24;100745.00;;;9.80
23208;BMP180;11773;52.570;13.052;2023-02-01T02:22:29;100734.00;;;9.70
23208;BMP180;11773;52.570;13.052;2023-02-01T02:34:21;100730.00;;;9.70
23208;BMP180;11773;52.570;13.052;2023-02-01T02:37:03;100735.00;;;9.70
23208;BMP180;11773;52.570;13.052;2023-02-01T02:39:53;100740.00;;;9.70
23208;BMP180;11773;52.570;13.052;2023-02-01T02:42:38;100733.00;;;9.70
23208;BMP180;11773;52.570;13.052;2023-02-01T02:45:41;100735.00;;;9.70
23208;BMP180;11773;52.570;13.052;2023-02-01T02:51:41;100741.00;;;9.60
23208;BMP180;11773;52.570;13.052;2023-02-01T02:54:32;100725.00;;;9.60
23208;BMP180;11773;52.570;13.052;2023-02-01T02:57:21;100723.00;;;9.70
23208;BMP180;11773;52.570;13.052;2023-02-01T03:00:12;100731.00;;;9.70
23208;BMP180;11773;52.570;13.052;2023-02-01T03:03:01;100728.00;;;9.70
23208;BMP180;11773;52.570;13.052;2023-02-01T03:05:50;100717.00;;;9.70
23208;BMP180;11773;52.570;13.052;2023-02-01T03:08:28;100708.00;;;9.70
23208;BMP180;11773;52.570;13.052;2023-02-01T03:11:09;100714.00;;;9.80
23208;BMP180;11773;52.570;13.052;2023-02-01T03:13:52;100697.00;;;9.80
23208;BMP180;11773;52.570;13.052;2023-02-01T03:16:31;100703.00;;;9.80
23208;BMP180;11773;52.570;13.052;2023-02-01T03:22:06;100678.00;;;9.80
23208;BMP180;11773;52.570;13.052;2023-02-01T03:24:56;100672.00;;;9.80
23208;BMP180;11773;52.570;13.052;2023-02-01T03:27:35;100685.00;;;9.80
23208;BMP180;11773;52.570;13.052;2023-02-01T03:30:18;100679.00;;;9.80
23208;BMP180;11773;52.570;13.052;2023-02-01T03:32:51;100688.00;;;9.90
23208;BMP180;11773;52.570;13.052;2023-02-01T03:38:43;100670.00;;;9.90
23208;BMP180;11773;52.570;13.052;2023-02-01T03:41:37;100670.00;;;9.90
23208;BMP180;11773;52.570;13.052;2023-02-01T03:47:15;100670.00;;;9.90
23208;BMP180;11773;52.570;13.052;2023-02-01T03:49:53;100667.00;;;9.90
23208;BMP180;11773;52.570;13.052;2023-02-01T03:53:10;100664.00;;;9.90
23208;BMP180;11773;52.570;13.052;2023-02-01T03:55:01;100666.00;;;9.90
23208;BMP180;11773;52.570;13.052;2023-02-01T03:57:38;100673.00;;;9.90
23208;BMP180;11773;52.570;13.052;2023-02-01T04:00:20;100655.00;;;10.00
23208;BMP180;11773;52.570;13.052;2023-02-01T04:02:52;100665.00;;;10.00
23208;BMP180;11773;52.570;13.052;2023-02-01T04:05:23;100654.00;;;10.00
23208;BMP180;11773;52.570;13.052;2023-02-01T04:07:52;100659.00;;;10.00
23208;BMP180;11773;52.570;13.052;2023-02-01T04:10:22;100652.00;;;10.00
23208;BMP180;11773;52.570;13.052;2023-02-01T04:12:52;100653.00;;;10.10
23208;BMP180;11773;52.570;13.052;2023-02-01T04:15:22;100647.00;;;10.10
23208;BMP180;11773;52.570;13.052;2023-02-01T04:17:51;100653.00;;;10.10
23208;BMP180;11773;52.570;13.052;2023-02-01T04:20:21;100651.00;;;10.10
23208;BMP180;11773;52.570;13.052;2023-02-01T04:22:51;100651.00;;;10.20
23208;BMP180;11773;52.570;13.052;2023-02-01T04:25:20;100642.00;;;10.20
23208;BMP180;11773;52.570;13.052;2023-02-01T04:27:50;100656.00;;;10.20
23208;BMP180;11773;52.570;13.052;2023-02-01T04:30:19;100652.00;;;10.20
23208;BMP180;11773;52.570;13.052;2023-02-01T04:32:49;100644.00;;;10.20
23208;BMP180;11773;52.570;13.052;2023-02-01T04:35:19;100642.00;;;10.20
23208;BMP180;11773;52.570;13.052;2023-02-01T04:37:48;100637.00;;;10.30
23208;BMP180;11773;52.570;13.052;2023-02-01T04:40:18;100644.00;;;10.30
23208;BMP180;11773;52.570;13.052;2023-02-01T04:42:47;100657.00;;;10.30
23208;BMP180;11773;52.570;13.052;2023-02-01T04:45:17;100649.00;;;10.30
23208;BMP180;11773;52.570;13.052;2023-02-01T04:47:46;100637.00;;;10.30
23208;BMP180;11773;52.570;13.052;2023-02-01T04:50:17;100628.00;;;10.30
23208;BMP180;11773;52.570;13.052;2023-02-01T04:52:46;100625.00;;;10.30
23208;BMP180;11773;52.570;13.052;2023-02-01T04:55:16;100625.00;;;10.40
23208;BMP180;11773;52.570;13.052;2023-02-01T04:57:45;100619.00;;;10.40
23208;BMP180;11773;52.570;13.052;2023-02-01T05:00:15;100624.00;;;10.40
23208;BMP180;11773;52.570;13.052;2023-02-01T05:02:45;100631.00;;;10.40
23208;BMP180;11773;52.570;13.052;2023-02-01T05:05:14;100634.00;;;10.40
23208;BMP180;11773;52.570;13.052;2023-02-01T05:07:45;100616.00;;;10.40
23208;BMP180;11773;52.570;13.052;2023-02-01T05:10:15;100614.00;;;10.50
23208;BMP180;11773;52.570;13.052;2023-02-01T05:12:45;100611.00;;;10.40
23208;BMP180;11773;52.570;13.052;2023-02-01T05:15:32;100602.00;;;10.40
23208;BMP180;11773;52.570;13.052;2023-02-01T05:18:02;100615.00;;;10.40
23208;BMP180;11773;52.570;13.052;2023-02-01T05:20:31;100615.00;;;10.50
23208;BMP180;11773;52.570;13.052;2023-02-01T05:23:01;100617.00;;;10.50
23208;BMP180;11773;52.570;13.052;2023-02-01T05:25:30;100612.00;;;10.50
23208;BMP180;11773;52.570;13.052;2023-02-01T05:27:59;100611.00;;;10.50
23208;BMP180;11773;52.570;13.052;2023-02-01T05:30:29;100614.00;;;10.50
23208;BMP180;11773;52.570;13.052;2023-02-01T05:33:00;100603.00;;;10.50
23208;BMP180;11773;52.570;13.052;2023-02-01T05:35:30;100608.00;;;10.50
23208;BMP180;11773;52.570;13.052;2023-02-01T05:38:00;100606.00;;;10.60
23208;BMP180;11773;52.570;13.052;2023-02-01T05:40:29;100608.00;;;10.60
23208;BMP180;11773;52.570;13.052;2023-02-01T05:42:59;100611.00;;;10.60
23208;BMP180;11773;52.570;13.052;2023-02-01T05:45:28;100599.00;;;10.60
23208;BMP180;11773;52.570;13.052;2023-02-01T05:47:58;100588.00;;;10.60
23208;BMP180;11773;52.570;13.052;2023-02-01T05:50:27;100583.00;;;10.60
23208;BMP180;11773;52.570;13.052;2023-02-01T05:52:57;100588.00;;;10.60
23208;BMP180;11773;52.570;13.052;2023-02-01T05:55:26;100587.00;;;10.60
23208;BMP180;11773;52.570;13.052;2023-02-01T05:57:55;100576.00;;;10.60
23208;BMP180;11773;52.570;13.052;2023-02-01T06:00:25;100587.00;;;10.60
23208;BMP180;11773;52.570;13.052;2023-02-01T06:02:55;100588.00;;;10.60
23208;BMP180;11773;52.570;13.052;2023-02-01T06:05:25;100574.00;;;10.60
23208;BMP180;11773;52.570;13.052;2023-02-01T06:07:54;100569.00;;;10.60
23208;BMP180;11773;52.570;13.052;2023-02-01T06:10:24;100576.00;;;10.60
23208;BMP180;11773;52.570;13.052;2023-02-01T06:12:54;100564.00;;;10.60
23208;BMP180;11773;52.570;13.052;2023-02-01T06:15:23;100561.00;;;10.60
23208;BMP180;11773;52.570;13.052;2023-02-01T06:17:53;100568.00;;;10.60
23208;BMP180;11773;52.570;13.052;2023-02-01T06:20:23;100588.00;;;10.60
23208;BMP180;11773;52.570;13.052;2023-02-01T06:22:52;100561.00;;;10.60
23208;BMP180;11773;52.570;13.052;2023-02-01T06:25:22;100557.00;;;10.60
23208;BMP180;11773;52.570;13.052;2023-02-01T06:27:51;100553.00;;;10.60
23208;BMP180;11773;52.570;13.052;2023-02-01T06:30:21;100561.00;;;10.60
23208;BMP180;11773;52.570;13.052;2023-02-01T06:32:52;100547.00;;;10.60
23208;BMP180;11773;52.570;13.052;2023-02-01T06:35:24;100541.00;;;10.60
23208;BMP180;11773;52.570;13.052;2023-02-01T06:37:54;100553.00;;;10.60
23208;BMP180;11773;52.570;13.052;2023-02-01T06:40:25;100536.00;;;10.60
23208;BMP180;11773;52.570;13.052;2023-02-01T06:42:55;100535.00;;;10.60
23208;BMP180;11773;52.570;13.052;2023-02-01T06:45:25;100532.00;;;10.60
23208;BMP180;11773;52.570;13.052;2023-02-01T06:47:54;100528.00;;;10.60
23208;BMP180;11773;52.570;13.052;2023-02-01T06:50:24;100537.00;;;10.70
23208;BMP180;11773;52.570;13.052;2023-02-01T06:52:53;100533.00;;;10.60
23208;BMP180;11773;52.570;13.052;2023-02-01T06:55:23;100526.00;;;10.60
23208;BMP180;11773;52.570;13.052;2023-02-01T06:57:56;100538.00;;;10.70
23208;BMP180;11773;52.570;13.052;2023-02-01T07:00:26;100533.00;;;10.60
23208;BMP180;11773;52.570;13.052;2023-02-01T07:02:57;100526.00;;;10.60
23208;BMP180;11773;52.570;13.052;2023-02-01T07:05:28;100520.00;;;10.60
23208;BMP180;11773;52.570;13.052;2023-02-01T07:07:57;100531.00;;;10.60
23208;BMP180;11773;52.570;13.052;2023-02-01T07:10:27;100526.00;;;10.60
23208;BMP180;11773;52.570;13.052;2023-02-01T07:12:59;100523.00;;;10.60
23208;BMP180;11773;52.570;13.052;2023-02-01T07:15:29;100515.00;;;10.60
23208;BMP180;11773;52.570;13.052;2023-02-01T07:17:58;100515.00;;;10.60
23208;BMP180;11773;52.570;13.052;2023-02-01T07:20:28;100511.00;;;10.60
23208;BMP180;11773;52.570;13.052;2023-02-01T07:22:58;100499.00;;;10.60
23208;BMP180;11773;52.570;13.052;2023-02-01T07:25:27;100507.00;;;10.60
23208;BMP180;11773;52.570;13.052;2023-02-01T07:27:57;100508.00;;;10.60
23208;BMP180;11773;52.570;13.052;2023-02-01T07:30:26;100520.00;;;10.60
23208;BMP180;11773;52.570;13.052;2023-02-01T07:32:56;100507.00;;;10.60
23208;BMP180;11773;52.570;13.052;2023-02-01T07:35:28;100507.00;;;10.60
23208;BMP180;11773;52.570;13.052;2023-02-01T07:37:58;100508.00;;;10.60
23208;BMP180;11773;52.570;13.052;2023-02-01T07:40:28;100510.00;;;10.60
23208;BMP180;11773;52.570;13.052;2023-02-01T07:42:58;100502.00;;;10.60
23208;BMP180;11773;52.570;13.052;2023-02-01T07:45:28;100508.00;;;10.60
23208;BMP180;11773;52.570;13.052;2023-02-01T07:47:57;100503.00;;;10.60
23208;BMP180;11773;52.570;13.052;2023-02-01T07:50:27;100506.00;;;10.60
23208;BMP180;11773;52.570;13.052;2023-02-01T07:52:59;100497.00;;;10.60
23208;BMP180;11773;52.570;13.052;2023-02-01T07:55:49;100491.00;;;10.60
23208;BMP180;11773;52.570;13.052;2023-02-01T07:58:19;100509.00;;;10.50
23208;BMP180;11773;52.570;13.052;2023-02-01T08:00:48;100482.00;;;10.50
23208;BMP180;11773;52.570;13.052;2023-02-01T08:03:36;100506.00;;;10.50
23208;BMP180;11773;52.570;13.052;2023-02-01T08:06:07;100494.00;;;10.40
23208;BMP180;11773;52.570;13.052;2023-02-01T08:08:36;100497.00;;;10.40
23208;BMP180;11773;52.570;13.052;2023-02-01T08:11:07;100488.00;;;10.40
23208;BMP180;11773;52.570;13.052;2023-02-01T08:13:37;100506.00;;;10.40
23208;BMP180;11773;52.570;13.052;2023-02-01T08:16:09;100494.00;;;10.40
23208;BMP180;11773;52.570;13.052;2023-02-01T08:18:40;100494.00;;;10.40
23208;BMP180;11773;52.570;13.052;2023-02-01T08:21:17;100500.00;;;10.40
23208;BMP180;11773;52.570;13.052;2023-02-01T08:23:47;100503.00;;;10.40
23208;BMP180;11773;52.570;13.052;2023-02-01T08:26:22;100506.00;;;10.40
23208;BMP180;11773;52.570;13.052;2023-02-01T08:29:00;100511.00;;;10.40
23208;BMP180;11773;52.570;13.052;2023-02-01T08:31:31;100507.00;;;10.30
23208;BMP180;11773;52.570;13.052;2023-02-01T08:34:02;100524.00;;;10.30
23208;BMP180;11773;52.570;13.052;2023-02-01T08:36:32;100521.00;;;10.30
23208;BMP180;11773;52.570;13.052;2023-02-01T08:39:02;100523.00;;;10.30
23208;BMP180;11773;52.570;13.052;2023-02-01T08:41:34;100536.00;;;10.30
23208;BMP180;11773;52.570;13.052;2023-02-01T08:44:03;100524.00;;;10.30
23208;BMP180;11773;52.570;13.052;2023-02-01T08:46:33;100531.00;;;10.30
23208;BMP180;11773;52.570;13.052;2023-02-01T08:49:02;100527.00;;;10.30
23208;BMP180;11773;52.570;13.052;2023-02-01T08:51:32;100531.00;;;10.20
23208;BMP180;11773;52.570;13.052;2023-02-01T08:54:01;100533.00;;;10.20
23208;BMP180;11773;52.570;13.052;2023-02-01T08:56:31;100551.00;;;10.20
23208;BMP180;11773;52.570;13.052;2023-02-01T08:59:00;100544.00;;;10.20
23208;BMP180;11773;52.570;13.052;2023-02-01T09:01:30;100535.00;;;10.20
23208;BMP180;11773;52.570;13.052;2023-02-01T09:03:59;100543.00;;;10.20
23208;BMP180;11773;52.570;13.052;2023-02-01T09:06:29;100548.00;;;10.20
23208;BMP180;11773;52.570;13.052;2023-02-01T09:08:58;100550.00;;;10.20
23208;BMP180;11773;52.570;13.052;2023-02-01T09:11:28;100567.00;;;10.20
23208;BMP180;11773;52.570;13.052;2023-02-01T09:13:57;100571.00;;;10.20
23208;BMP180;11773;52.570;13.052;2023-02-01T09:16:27;100563.00;;;10.20
23208;BMP180;11773;52.570;13.052;2023-02-01T09:18:56;100559.00;;;10.20
23208;BMP180;11773;52.570;13.052;2023-02-01T09:21:29;100557.00;;;10.30
23208;BMP180;11773;52.570;13.052;2023-02-01T09:23:59;100566.00;;;10.30
23208;BMP180;11773;52.570;13.052;2023-02-01T09:26:28;100569.00;;;10.30
23208;BMP180;11773;52.570;13.052;2023-02-01T09:29:01;100572.00;;;10.30
23208;BMP180;11773;52.570;13.052;2023-02-01T09:31:31;100582.00;;;10.20
23208;BMP180;11773;52.570;13.052;2023-02-01T09:34:01;100577.00;;;10.30
23208;BMP180;11773;52.570;13.052;2023-02-01T09:36:31;100597.00;;;10.30
23208;BMP180;11773;52.570;13.052;2023-02-01T09:39:02;100579.00;;;10.30
23208;BMP180;11773;52.570;13.052;2023-02-01T09:47:45;100588.00;;;10.20
23208;BMP180;11773;52.570;13.052;2023-02-01T09:50:18;100596.00;;;10.20
23208;BMP180;11773;52.570;13.052;2023-02-01T09:53:06;100599.00;;;10.20
23208;BMP180;11773;52.570;13.052;2023-02-01T09:55:48;100619.00;;;10.20
23208;BMP180;11773;52.570;13.052;2023-02-01T09:58:25;100616.00;;;10.30
23208;BMP180;11773;52.570;13.052;2023-02-01T10:01:01;100626.00;;;10.30
23208;BMP180;11773;52.570;13.052;2023-02-01T10:03:35;100611.00;;;10.30
23208;BMP180;11773;52.570;13.052;2023-02-01T10:06:24;100616.00;;;10.30
23208;BMP180;11773;52.570;13.052;2023-02-01T10:09:16;100628.00;;;10.30
23208;BMP180;11773;52.570;13.052;2023-02-01T10:14:56;100621.00;;;10.30
23208;BMP180;11773;52.570;13.052;2023-02-01T10:17:46;100614.00;;;10.30
23208;BMP180;11773;52.570;13.052;2023-02-01T10:20:28;100619.00;;;10.30
23208;BMP180;11773;52.570;13.052;2023-02-01T10:23:19;100622.00;;;10.30
23208;BMP180;11773;52.570;13.052;2023-02-01T10:25:54;100628.00;;;10.30
23208;BMP180;11773;52.570;13.052;2023-02-01T10:28:25;100625.00;;;10.30
23208;BMP180;11773;52.570;13.052;2023-02-01T10:30:58;100621.00;;;10.30
23208;BMP180;11773;52.570;13.052;2023-02-01T10:33:43;100612.00;;;10.30
23208;BMP180;11773;52.570;13.052;2023-02-01T10:36:28;100602.00;;;10.30
23208;BMP180;11773;52.570;13.052;2023-02-01T10:38:59;100612.00;;;10.30
23208;BMP180;11773;52.570;13.052;2023-02-01T10:41:39;100606.00;;;10.30
23208;BMP180;11773;52.570;13.052;2023-02-01T10:44:19;100589.00;;;10.40
23208;BMP180;11773;52.570;13.052;2023-02-01T10:46:49;100603.00;;;10.40
23208;BMP180;11773;52.570;13.052;2023-02-01T10:49:46;100612.00;;;10.40
23208;BMP180;11773;52.570;13.052;2023-02-01T10:52:18;100592.00;;;10.40
23208;BMP180;11773;52.570;13.052;2023-02-01T10:54:47;100593.00;;;10.40
23208;BMP180;11773;52.570;13.052;2023-02-01T10:57:26;100610.00;;;10.50
23208;BMP180;11773;52.570;13.052;2023-02-01T10:59:57;100604.00;;;10.50
23208;BMP180;11773;52.570;13.052;2023-02-01T11:02:35;100601.00;;;10.50
23208;BMP180;11773;52.570;13.052;2023-02-01T11:05:09;100588.00;;;10.50
23208;BMP180;11773;52.570;13.052;2023-02-01T11:07:47;100589.00;;;10.60
23208;BMP180;11773;52.570;13.052;2023-02-01T11:10:37;100580.00;;;10.60
23208;BMP180;11773;52.570;13.052;2023-02-01T11:13:14;100599.00;;;10.60
23208;BMP180;11773;52.570;13.052;2023-02-01T11:15:54;100582.00;;;10.60
23208;BMP180;11773;52.570;13.052;2023-02-01T11:18:26;100575.00;;;10.70
23208;BMP180;11773;52.570;13.052;2023-02-01T11:20:56;100583.00;;;10.70
23208;BMP180;11773;52.570;13.052;2023-02-01T11:23:29;100563.00;;;10.80
23208;BMP180;11773;52.570;13.052;2023-02-01T11:26:11;100569.00;;;10.80
23208;BMP180;11773;52.570;13.052;2023-02-01T11:28:47;100581.00;;;10.80
23208;BMP180;11773;52.570;13.052;2023-02-01T11:31:15;100575.00;;;10.90
23208;BMP180;11773;52.570;13.052;2023-02-01T11:33:49;100564.00;;;11.00
23208;BMP180;11773;52.570;13.052;2023-02-01T11:36:26;100560.00;;;11.00
23208;BMP180;11773;52.570;13.052;2023-02-01T11:39:23;100546.00;;;11.00
23208;BMP180;11773;52.570;13.052;2023-02-01T11:42:15;100550.00;;;11.10
23208;BMP180;11773;52.570;13.052;2023-02-01T11:44:47;100552.00;;;11.10
23208;BMP180;11773;52.570;13.052;2023-02-01T11:47:40;100543.00;;;11.10
23208;BMP180;11773;52.570;13.052;2023-02-01T11:50:17;100559.00;;;11.20
23208;BMP180;11773;52.570;13.052;2023-02-01T11:56:22;100533.00;;;11.20
23208;BMP180;11773;52.570;13.052;2023-02-01T11:58:57;100528.00;;;11.20
23208;BMP180;11773;52.570;13.052;2023-02-01T12:01:50;100525.00;;;11.30
23208;BMP180;11773;52.570;13.052;2023-02-01T12:07:51;100523.00;;;11.30
23208;BMP180;11773;52.570;13.052;2023-02-01T12:13:35;100541.00;;;11.40
23208;BMP180;11773;52.570;13.052;2023-02-01T12:19:13;100502.00;;;11.40
23208;BMP180;11773;52.570;13.052;2023-02-01T12:21:53;100507.00;;;11.50
23208;BMP180;11773;52.570;13.052;2023-02-01T12:24:35;100505.00;;;11.50
23208;BMP180;11773;52.570;13.052;2023-02-01T12:33:21;100490.00;;;11.50
23208;BMP180;11773;52.570;13.052;2023-02-01T12:36:19;100474.00;;;11.50
23208;BMP180;11773;52.570;13.052;2023-02-01T12:47:27;100460.00;;;11.50
23208;BMP180;11773;52.570;13.052;2023-02-01T12:50:03;100478.00;;;11.60
23208;BMP180;11773;52.570;13.052;2023-02-01T12:52:46;100468.00;;;11.60
23208;BMP180;11773;52.570;13.052;2023-02-01T12:55:28;100475.00;;;11.60
23208;BMP180;11773;52.570;13.052;2023-02-01T12:58:15;100478.00;;;11.60
23208;BMP180;11773;52.570;13.052;2023-02-01T13:01:04;100480.00;;;11.60
23208;BMP180;11773;52.570;13.052;2023-02-01T13:03:57;100484.00;;;11.70
23208;BMP180;11773;52.570;13.052;2023-02-01T13:06:39;100475.00;;;11.70
23208;BMP180;11773;52.570;13.052;2023-02-01T13:11:46;100476.00;;;11.70
23208;BMP180;11773;52.570;13.052;2023-02-01T13:14:39;100463.00;;;11.70
23208;BMP180;11773;52.570;13.052;2023-02-01T13:17:22;100465.00;;;11.70
23208;BMP180;11773;52.570;13.052;2023-02-01T13:20:13;100464.00;;;11.70
23208;BMP180;11773;52.570;13.052;2023-02-01T13:22:43;100471.00;;;11.70
23208;BMP180;11773;52.570;13.052;2023-02-01T13:25:28;100462.00;;;11.80
23208;BMP180;11773;52.570;13.052;2023-02-01T13:28:04;100451.00;;;11.80
23208;BMP180;11773;52.570;13.052;2023-02-01T13:37:32;100425.00;;;11.70
23208;BMP180;11773;52.570;13.052;2023-02-01T13:40:41;100424.00;;;11.80
23208;BMP180;11773;52.570;13.052;2023-02-01T13:43:06;100419.00;;;11.80
23208;BMP180;11773;52.570;13.052;2023-02-01T13:45:43;100411.00;;;11.80
23208;BMP180;11773;52.570;13.052;2023-02-01T13:48:20;100409.00;;;11.80
23208;BMP180;11773;52.570;13.052;2023-02-01T13:50:56;100414.00;;;11.90
23208;BMP180;11773;52.570;13.052;2023-02-01T13:53:38;100417.00;;;11.90
23208;BMP180;11773;52.570;13.052;2023-02-01T13:56:20;100426.00;;;11.90
23208;BMP180;11773;52.570;13.052;2023-02-01T13:58:52;100405.00;;;11.90
23208;BMP180;11773;52.570;13.052;2023-02-01T14:04:06;100395.00;;;11.90
23208;BMP180;11773;52.570;13.052;2023-02-01T14:06:39;100402.00;;;11.90
23208;BMP180;11773;52.570;13.052;2023-02-01T14:09:13;100390.00;;;11.90
23208;BMP180;11773;52.570;13.052;2023-02-01T14:11:53;100392.00;;;11.90
23208;BMP180;11773;52.570;13.052;2023-02-01T14:19:35;100385.00;;;11.90
23208;BMP180;11773;52.570;13.052;2023-02-01T14:22:33;100361.00;;;11.90
23208;BMP180;11773;52.570;13.052;2023-02-01T14:25:03;100359.00;;;11.90
23208;BMP180;11773;52.570;13.052;2023-02-01T14:27:35;100357.00;;;11.90
23208;BMP180;11773;52.570;13.052;2023-02-01T14:30:14;100351.00;;;11.90
23208;BMP180;11773;52.570;13.052;2023-02-01T14:32:43;100354.00;;;11.90
23208;BMP180;11773;52.570;13.052;2023-02-01T14:35:27;100348.00;;;11.90
23208;BMP180;11773;52.570;13.052;2023-02-01T14:38:02;100347.00;;;11.90
23208;BMP180;11773;52.570;13.052;2023-02-01T14:40:32;100335.00;;;11.90
23208;BMP180;11773;52.570;13.052;2023-02-01T14:43:03;100331.00;;;11.90
23208;BMP180;11773;52.570;13.052;2023-02-01T14:50:48;100334.00;;;11.90
23208;BMP180;11773;52.570;13.052;2023-02-01T14:53:31;100324.00;;;11.90
23208;BMP180;11773;52.570;13.052;2023-02-01T14:56:09;100353.00;;;11.80
23208;BMP180;11773;52.570;13.052;2023-02-01T14:59:00;100355.00;;;11.80
23208;BMP180;11773;52.570;13.052;2023-02-01T15:01:35;100347.00;;;11.70
23208;BMP180;11773;52.570;13.052;2023-02-01T15:04:15;100350.00;;;11.70
23208;BMP180;11773;52.570;13.052;2023-02-01T15:07:04;100355.00;;;11.60
23208;BMP180;11773;52.570;13.052;2023-02-01T15:09:29;100349.00;;;11.50
23208;BMP180;11773;52.570;13.052;2023-02-01T15:14:47;100352.00;;;11.40
23208;BMP180;11773;52.570;13.052;2023-02-01T15:17:26;100358.00;;;11.40
23208;BMP180;11773;52.570;13.052;2023-02-01T15:20:01;100362.00;;;11.40
23208;BMP180;11773;52.570;13.052;2023-02-01T15:22:33;100372.00;;;11.40
23208;BMP180;11773;52.570;13.052;2023-02-01T15:25:03;100361.00;;;11.30
23208;BMP180;11773;52.570;13.052;2023-02-01T15:27:34;100347.00;;;11.30
23208;BMP180;11773;52.570;13.052;2023-02-01T15:30:25;100353.00;;;11.30
23208;BMP180;11773;52.570;13.052;2023-02-01T15:33:03;100371.00;;;11.20
23208;BMP180;11773;52.570;13.052;2023-02-01T15:35:50;100366.00;;;11.20
23208;BMP180;11773;52.570;13.052;2023-02-01T15:38:34;100398.00;;;11.10
23208;BMP180;11773;52.570;13.052;2023-02-01T15:41:21;100394.00;;;11.10
23208;BMP180;11773;52.570;13.052;2023-02-01T15:46:45;100409.00;;;10.90
23208;BMP180;11773;52.570;13.052;2023-02-01T15:49:31;100406.00;;;10.80
23208;BMP180;11773;52.570;13.052;2023-02-01T15:52:03;100412.00;;;10.70
23208;BMP180;11773;52.570;13.052;2023-02-01T15:54:47;100417.00;;;10.60
23208;BMP180;11773;52.570;13.052;2023-02-01T15:57:35;100411.00;;;10.50
23208;BMP180;11773;52.570;13.052;2023-02-01T16:00:27;100418.00;;;10.40
23208;BMP180;11773;52.570;13.052;2023-02-01T16:03:10;100405.00;;;10.30